Astoria, South Dakota
Current Conditions -  °F | °C
As of 4:54 AM on Friday 31 Oct 2014 (Local Time) from KCNB Reporting Station
Clear Clear  
Wind Chill: 13°   Ceiling: Unl
Heat Index: 22°   Visibility: 10mi
Dew Point: 21°   Wind: 7mph
Humidity: 95%   Direction: 320°NW
Pressure: 30.56"   Gusts: NA
Location:  44.56°N, 96.55°W
Report Text: KCNB 310954Z AUTO 32006KT 10SM CLR M06/M06 A3056 RMK AO2 T10561063
Loading
Personal Weather Stations






























Interactive Weather Map New forecast layout! Learn more

10-Day Weather Forecast

Advertisements
Track Severe Weather on mobile